Bitte die für das Benutzerkonto hinterlegte E-Mail-Adresse eingeben. Der Benutzername wird dann an diese E-Mail-Adresse geschickt.

 

 

 
NEU! ab. 1.4.
Nortel Info 128,740 MHz

WebCam

  
Kamera Halle
Kamera Vorfeld
Wetter EDDS

METAR

EDDS 170950Z VRB03KT CAVOK 17/08 Q1019 NOSIG =
EDDS 170500Z 1706/1806 VRB03KT CAVOK TEMPO 1712/1718 04005KT


TAF

EDDS 170500Z 1706/1806 VRB03KT CAVOK TEMPO 1712/1718 04005KT =


SR/SS

05:44 / 16:29 UTC
(EDSO 17-10-2018)